sensor_id;sensor_type;location;lat;lon;timestamp;pressure;altitude;pressure_sealevel;temperature;humidity
83894;BME280;73920;51.902;6.374;2024-03-29T00:02:05;99147.13;;;8.60;63.86
83894;BME280;73920;51.902;6.374;2024-03-29T00:04:31;99140.84;;;8.61;64.13
83894;BME280;73920;51.902;6.374;2024-03-29T00:06:57;99140.97;;;8.59;64.29
83894;BME280;73920;51.902;6.374;2024-03-29T00:09:24;99136.34;;;8.61;64.13
83894;BME280;73920;51.902;6.374;2024-03-29T00:11:50;99131.87;;;8.62;64.18
83894;BME280;73920;51.902;6.374;2024-03-29T00:14:16;99134.53;;;8.62;64.11
83894;BME280;73920;51.902;6.374;2024-03-29T00:16:42;99126.69;;;8.60;64.38
83894;BME280;73920;51.902;6.374;2024-03-29T00:19:08;99132.13;;;8.59;64.19
83894;BME280;73920;51.902;6.374;2024-03-29T00:21:35;99121.59;;;8.57;64.50
83894;BME280;73920;51.902;6.374;2024-03-29T00:24:01;99123.41;;;8.57;64.57
83894;BME280;73920;51.902;6.374;2024-03-29T00:26:27;99130.53;;;8.56;64.76
83894;BME280;73920;51.902;6.374;2024-03-29T00:28:53;99135.97;;;8.55;64.66
83894;BME280;73920;51.902;6.374;2024-03-29T00:31:19;99129.06;;;8.52;65.29
83894;BME280;73920;51.902;6.374;2024-03-29T00:33:46;99124.91;;;8.48;64.82
83894;BME280;73920;51.902;6.374;2024-03-29T00:36:12;99131.19;;;8.47;64.90
83894;BME280;73920;51.902;6.374;2024-03-29T00:38:38;99139.19;;;8.47;65.04
83894;BME280;73920;51.902;6.374;2024-03-29T00:41:04;99138.31;;;8.47;64.38
83894;BME280;73920;51.902;6.374;2024-03-29T00:43:30;99144.50;;;8.47;64.48
83894;BME280;73920;51.902;6.374;2024-03-29T00:45:56;99148.03;;;8.48;64.69
83894;BME280;73920;51.902;6.374;2024-03-29T00:48:23;99144.62;;;8.46;64.33
83894;BME280;73920;51.902;6.374;2024-03-29T00:50:50;99160.63;;;8.46;64.68
83894;BME280;73920;51.902;6.374;2024-03-29T00:53:16;99160.84;;;8.43;64.42
83894;BME280;73920;51.902;6.374;2024-03-29T00:55:42;99162.75;;;8.40;64.69
83894;BME280;73920;51.902;6.374;2024-03-29T00:58:09;99156.56;;;8.40;64.47
83894;BME280;73920;51.902;6.374;2024-03-29T01:00:35;99157.44;;;8.40;64.72
83894;BME280;73920;51.902;6.374;2024-03-29T01:03:01;99153.91;;;8.40;64.70
83894;BME280;73920;51.902;6.374;2024-03-29T01:05:27;99147.72;;;8.39;64.89
83894;BME280;73920;51.902;6.374;2024-03-29T01:07:53;99153.06;;;8.39;64.55
83894;BME280;73920;51.902;6.374;2024-03-29T01:10:20;99160.09;;;8.40;64.10
83894;BME280;73920;51.902;6.374;2024-03-29T01:12:46;99157.44;;;8.40;64.45
83894;BME280;73920;51.902;6.374;2024-03-29T01:15:12;99165.56;;;8.39;64.38
83894;BME280;73920;51.902;6.374;2024-03-29T01:17:38;99170.97;;;8.37;64.49
83894;BME280;73920;51.902;6.374;2024-03-29T01:20:05;99173.72;;;8.36;64.13
83894;BME280;73920;51.902;6.374;2024-03-29T01:22:32;99173.97;;;8.33;64.73
83894;BME280;73920;51.902;6.374;2024-03-29T01:24:58;99166.09;;;8.31;64.74
83894;BME280;73920;51.902;6.374;2024-03-29T01:27:24;99168.84;;;8.30;64.61
83894;BME280;73920;51.902;6.374;2024-03-29T01:29:50;99170.66;;;8.29;64.60
83894;BME280;73920;51.902;6.374;2024-03-29T01:32:16;99175.91;;;8.31;64.54
83894;BME280;73920;51.902;6.374;2024-03-29T01:34:43;99173.22;;;8.31;64.68
83894;BME280;73920;51.902;6.374;2024-03-29T01:37:09;99168.84;;;8.30;64.59
83894;BME280;73920;51.902;6.374;2024-03-29T01:39:35;99160.88;;;8.30;64.81
83894;BME280;73920;51.902;6.374;2024-03-29T01:42:01;99158.31;;;8.28;64.62
83894;BME280;73920;51.902;6.374;2024-03-29T01:44:27;99145.94;;;8.27;64.71
83894;BME280;73920;51.902;6.374;2024-03-29T01:46:54;99146.03;;;8.26;64.98
83894;BME280;73920;51.902;6.374;2024-03-29T01:49:20;99156.81;;;8.24;65.01
83894;BME280;73920;51.902;6.374;2024-03-29T01:51:46;99159.56;;;8.23;64.69
83894;BME280;73920;51.902;6.374;2024-03-29T01:54:12;99146.16;;;8.24;64.67
83894;BME280;73920;51.902;6.374;2024-03-29T01:56:40;99137.19;;;8.25;64.47
83894;BME280;73920;51.902;6.374;2024-03-29T01:59:12;99130.91;;;8.26;64.51
83894;BME280;73920;51.902;6.374;2024-03-29T02:01:40;99121.03;;;8.28;64.46
83894;BME280;73920;51.902;6.374;2024-03-29T02:04:08;99112.09;;;8.29;64.92
83894;BME280;73920;51.902;6.374;2024-03-29T02:06:34;99091.63;;;8.30;64.05
83894;BME280;73920;51.902;6.374;2024-03-29T02:09:01;99104.84;;;8.31;64.49
83894;BME280;73920;51.902;6.374;2024-03-29T02:11:27;99093.13;;;8.34;64.43
83894;BME280;73920;51.902;6.374;2024-03-29T02:13:53;99086.72;;;8.36;64.80
83894;BME280;73920;51.902;6.374;2024-03-29T02:16:20;99097.03;;;8.41;64.08
83894;BME280;73920;51.902;6.374;2024-03-29T02:18:46;99092.22;;;8.46;64.50
83894;BME280;73920;51.902;6.374;2024-03-29T02:21:12;99085.81;;;8.49;64.32
83894;BME280;73920;51.902;6.374;2024-03-29T02:23:43;99087.37;;;8.51;64.62
83894;BME280;73920;51.902;6.374;2024-03-29T02:26:11;99094.28;;;8.54;64.80
83894;BME280;73920;51.902;6.374;2024-03-29T02:28:38;99102.28;;;8.54;64.45
83894;BME280;73920;51.902;6.374;2024-03-29T02:31:05;99119.03;;;8.56;64.30
83894;BME280;73920;51.902;6.374;2024-03-29T02:33:31;99122.41;;;8.58;64.38
83894;BME280;73920;51.902;6.374;2024-03-29T02:35:57;99142.66;;;8.60;64.18
83894;BME280;73920;51.902;6.374;2024-03-29T02:38:24;99150.66;;;8.60;64.36
83894;BME280;73920;51.902;6.374;2024-03-29T02:40:50;99144.25;;;8.63;64.74
83894;BME280;73920;51.902;6.374;2024-03-29T02:43:16;99132.63;;;8.64;64.28
83894;BME280;73920;51.902;6.374;2024-03-29T02:45:43;99149.34;;;8.66;64.92
83894;BME280;73920;51.902;6.374;2024-03-29T02:48:09;99153.94;;;8.64;64.67
83894;BME280;73920;51.902;6.374;2024-03-29T02:50:35;99149.47;;;8.64;64.90
83894;BME280;73920;51.902;6.374;2024-03-29T02:53:02;99128.03;;;8.66;64.28
83894;BME280;73920;51.902;6.374;2024-03-29T02:55:28;99133.25;;;8.67;64.35
83894;BME280;73920;51.902;6.374;2024-03-29T02:57:54;99129.59;;;8.68;64.86
83894;BME280;73920;51.902;6.374;2024-03-29T03:00:21;99139.44;;;8.68;64.29
83894;BME280;73920;51.902;6.374;2024-03-29T03:02:47;99126.84;;;8.70;64.27
83894;BME280;73920;51.902;6.374;2024-03-29T03:05:13;99145.16;;;8.74;64.42
83894;BME280;73920;51.902;6.374;2024-03-29T03:07:39;99140.56;;;8.76;64.04
83894;BME280;73920;51.902;6.374;2024-03-29T03:10:06;99148.31;;;8.79;64.16
83894;BME280;73920;51.902;6.374;2024-03-29T03:12:33;99134.88;;;8.81;64.46
83894;BME280;73920;51.902;6.374;2024-03-29T03:14:59;99127.62;;;8.83;64.53
83894;BME280;73920;51.902;6.374;2024-03-29T03:17:27;99148.72;;;8.86;64.11
83894;BME280;73920;51.902;6.374;2024-03-29T03:19:54;99140.50;;;8.89;64.62
83894;BME280;73920;51.902;6.374;2024-03-29T03:22:20;99136.75;;;8.92;63.67
83894;BME280;73920;51.902;6.374;2024-03-29T03:24:47;99129.47;;;8.94;63.63
83894;BME280;73920;51.902;6.374;2024-03-29T03:27:13;99139.78;;;8.98;64.00
83894;BME280;73920;51.902;6.374;2024-03-29T03:29:39;99134.13;;;9.03;63.74
83894;BME280;73920;51.902;6.374;2024-03-29T03:32:06;99148.78;;;9.08;63.30
83894;BME280;73920;51.902;6.374;2024-03-29T03:34:33;99158.88;;;9.16;63.46
83894;BME280;73920;51.902;6.374;2024-03-29T03:36:59;99167.50;;;9.19;64.27
83894;BME280;73920;51.902;6.374;2024-03-29T03:39:25;99176.25;;;9.21;64.40
83894;BME280;73920;51.902;6.374;2024-03-29T03:41:52;99177.97;;;9.22;64.96
83894;BME280;73920;51.902;6.374;2024-03-29T03:44:18;99190.53;;;9.20;65.42
83894;BME280;73920;51.902;6.374;2024-03-29T03:46:44;99187.16;;;9.18;66.23
83894;BME280;73920;51.902;6.374;2024-03-29T03:49:10;99172.34;;;9.14;66.93
83894;BME280;73920;51.902;6.374;2024-03-29T03:51:36;99173.53;;;9.10;67.20
83894;BME280;73920;51.902;6.374;2024-03-29T03:54:04;99175.69;;;9.05;67.40
83894;BME280;73920;51.902;6.374;2024-03-29T03:56:30;99172.31;;;9.03;68.15
83894;BME280;73920;51.902;6.374;2024-03-29T03:58:57;99178.81;;;8.99;68.33
83894;BME280;73920;51.902;6.374;2024-03-29T04:01:23;99191.31;;;8.99;68.39
83894;BME280;73920;51.902;6.374;2024-03-29T04:03:49;99189.72;;;8.96;68.20
83894;BME280;73920;51.902;6.374;2024-03-29T04:06:15;99196.00;;;8.95;68.80
83894;BME280;73920;51.902;6.374;2024-03-29T04:08:44;99188.97;;;8.94;69.05
83894;BME280;73920;51.902;6.374;2024-03-29T04:11:11;99182.91;;;8.92;68.65
83894;BME280;73920;51.902;6.374;2024-03-29T04:13:37;99170.53;;;8.91;68.59
83894;BME280;73920;51.902;6.374;2024-03-29T04:16:04;99186.44;;;8.93;68.44
83894;BME280;73920;51.902;6.374;2024-03-29T04:18:31;99180.25;;;8.92;68.53
83894;BME280;73920;51.902;6.374;2024-03-29T04:20:59;99198.78;;;8.94;69.11
83894;BME280;73920;51.902;6.374;2024-03-29T04:23:26;99200.63;;;8.93;69.23
83894;BME280;73920;51.902;6.374;2024-03-29T04:26:01;99196.97;;;8.94;69.47
83894;BME280;73920;51.902;6.374;2024-03-29T04:28:27;99185.69;;;8.90;69.60
83894;BME280;73920;51.902;6.374;2024-03-29T04:30:58;99185.59;;;8.92;69.86
83894;BME280;73920;51.902;6.374;2024-03-29T04:33:25;99183.88;;;8.91;70.18
83894;BME280;73920;51.902;6.374;2024-03-29T04:36:09;99196.47;;;8.89;70.54
83894;BME280;73920;51.902;6.374;2024-03-29T04:38:35;99195.72;;;8.87;70.78
83894;BME280;73920;51.902;6.374;2024-03-29T04:41:01;99185.28;;;8.84;70.45
83894;BME280;73920;51.902;6.374;2024-03-29T04:43:28;99207.56;;;8.83;70.29
83894;BME280;73920;51.902;6.374;2024-03-29T04:46:03;99204.19;;;8.81;71.27
83894;BME280;73920;51.902;6.374;2024-03-29T04:48:30;99199.06;;;8.78;71.25
83894;BME280;73920;51.902;6.374;2024-03-29T04:50:57;99193.97;;;8.75;71.46
83894;BME280;73920;51.902;6.374;2024-03-29T04:53:23;99192.50;;;8.71;71.88
83894;BME280;73920;51.902;6.374;2024-03-29T04:55:54;99181.00;;;8.70;72.28
83894;BME280;73920;51.902;6.374;2024-03-29T04:58:22;99185.56;;;8.68;72.66
83894;BME280;73920;51.902;6.374;2024-03-29T05:00:49;99198.25;;;8.65;73.21
83894;BME280;73920;51.902;6.374;2024-03-29T05:03:19;99191.34;;;8.62;72.69
83894;BME280;73920;51.902;6.374;2024-03-29T05:05:48;99210.22;;;8.59;73.27
83894;BME280;73920;51.902;6.374;2024-03-29T05:08:14;99213.97;;;8.57;73.59
83894;BME280;73920;51.902;6.374;2024-03-29T05:10:40;99216.72;;;8.55;73.92
83894;BME280;73920;51.902;6.374;2024-03-29T05:13:07;99202.69;;;8.53;74.58
83894;BME280;73920;51.902;6.374;2024-03-29T05:15:33;99208.09;;;8.52;74.19
83894;BME280;73920;51.902;6.374;2024-03-29T05:17:59;99208.09;;;8.52;74.58
83894;BME280;73920;51.902;6.374;2024-03-29T05:20:26;99206.41;;;8.51;74.62
83894;BME280;73920;51.902;6.374;2024-03-29T05:22:52;99211.09;;;8.47;75.20
83894;BME280;73920;51.902;6.374;2024-03-29T05:25:18;99210.47;;;8.44;75.75
83894;BME280;73920;51.902;6.374;2024-03-29T05:27:44;99208.97;;;8.39;75.58
83894;BME280;73920;51.902;6.374;2024-03-29T05:30:11;99214.66;;;8.35;76.49
83894;BME280;73920;51.902;6.374;2024-03-29T05:32:38;99216.69;;;8.31;76.45
83894;BME280;73920;51.902;6.374;2024-03-29T05:35:05;99213.28;;;8.29;77.29
83894;BME280;73920;51.902;6.374;2024-03-29T05:37:32;99206.56;;;8.24;77.25
83894;BME280;73920;51.902;6.374;2024-03-29T05:39:58;99204.94;;;8.21;78.12
83894;BME280;73920;51.902;6.374;2024-03-29T05:42:25;99219.44;;;8.17;78.04
83894;BME280;73920;51.902;6.374;2024-03-29T05:44:51;99221.34;;;8.15;78.43
83894;BME280;73920;51.902;6.374;2024-03-29T05:47:17;99228.84;;;8.10;78.37
83894;BME280;73920;51.902;6.374;2024-03-29T05:49:44;99200.84;;;7.92;78.95
83894;BME280;73920;51.902;6.374;2024-03-29T05:52:10;99192.09;;;7.90;79.20
83894;BME280;73920;51.902;6.374;2024-03-29T05:54:36;99211.56;;;8.03;79.54
83894;BME280;73920;51.902;6.374;2024-03-29T05:57:03;99218.72;;;8.03;79.45
83894;BME280;73920;51.902;6.374;2024-03-29T05:59:30;99219.66;;;8.02;80.07
83894;BME280;73920;51.902;6.374;2024-03-29T06:01:56;99226.88;;;8.00;79.79
83894;BME280;73920;51.902;6.374;2024-03-29T06:04:22;99213.72;;;7.98;80.85
83894;BME280;73920;51.902;6.374;2024-03-29T06:06:48;99219.97;;;7.97;81.06
83894;BME280;73920;51.902;6.374;2024-03-29T06:09:14;99219.47;;;7.92;81.09
83894;BME280;73920;51.902;6.374;2024-03-29T06:11:41;99224.97;;;7.89;81.72
83894;BME280;73920;51.902;6.374;2024-03-29T06:14:07;99227.75;;;7.87;82.09
83894;BME280;73920;51.902;6.374;2024-03-29T06:16:33;99223.41;;;7.86;81.73
83894;BME280;73920;51.902;6.374;2024-03-29T06:18:59;99228.72;;;7.86;82.45
83894;BME280;73920;51.902;6.374;2024-03-29T06:21:26;99234.25;;;7.83;83.00
83894;BME280;73920;51.902;6.374;2024-03-29T06:23:52;99237.78;;;7.84;83.06
83894;BME280;73920;51.902;6.374;2024-03-29T06:26:18;99234.97;;;7.85;82.64
83894;BME280;73920;51.902;6.374;2024-03-29T06:28:44;99229.34;;;7.90;82.48
83894;BME280;73920;51.902;6.374;2024-03-29T06:31:11;99243.44;;;7.92;82.31
83894;BME280;73920;51.902;6.374;2024-03-29T06:33:37;99236.91;;;7.96;81.99
83894;BME280;73920;51.902;6.374;2024-03-29T06:36:05;99235.94;;;7.97;82.75
83894;BME280;73920;51.902;6.374;2024-03-29T06:38:31;99236.81;;;7.98;83.09
83894;BME280;73920;51.902;6.374;2024-03-29T06:40:58;99229.69;;;7.98;82.52
83894;BME280;73920;51.902;6.374;2024-03-29T06:43:24;99217.09;;;8.00;82.78
83894;BME280;73920;51.902;6.374;2024-03-29T06:45:50;99207.63;;;8.09;82.56
83894;BME280;73920;51.902;6.374;2024-03-29T06:48:16;99195.03;;;8.23;82.16
83894;BME280;73920;51.902;6.374;2024-03-29T06:50:42;99188.13;;;8.33;82.38
83894;BME280;73920;51.902;6.374;2024-03-29T06:53:09;99194.00;;;8.38;81.84
83894;BME280;73920;51.902;6.374;2024-03-29T06:55:35;99188.09;;;8.46;81.10
83894;BME280;73920;51.902;6.374;2024-03-29T06:58:01;99190.31;;;8.52;80.82
83894;BME280;73920;51.902;6.374;2024-03-29T07:00:28;99187.81;;;8.62;80.65
83894;BME280;73920;51.902;6.374;2024-03-29T07:02:54;99183.53;;;8.72;80.74
83894;BME280;73920;51.902;6.374;2024-03-29T07:05:20;99196.19;;;8.81;80.53
83894;BME280;73920;51.902;6.374;2024-03-29T07:07:46;99193.91;;;8.87;79.79
83894;BME280;73920;51.902;6.374;2024-03-29T07:10:13;99178.87;;;8.86;79.95
83894;BME280;73920;51.902;6.374;2024-03-29T07:12:39;99170.69;;;8.89;79.76
83894;BME280;73920;51.902;6.374;2024-03-29T07:15:06;99164.03;;;8.95;79.45
83894;BME280;73920;51.902;6.374;2024-03-29T07:17:33;99168.16;;;8.99;79.10
83894;BME280;73920;51.902;6.374;2024-03-29T07:19:59;99173.16;;;9.04;79.21
83894;BME280;73920;51.902;6.374;2024-03-29T07:22:25;99176.22;;;9.10;79.03
83894;BME280;73920;51.902;6.374;2024-03-29T07:24:51;99180.72;;;9.21;78.82
83894;BME280;73920;51.902;6.374;2024-03-29T07:27:17;99182.94;;;9.27;78.70
83894;BME280;73920;51.902;6.374;2024-03-29T07:29:44;99179.91;;;9.31;78.60
83894;BME280;73920;51.902;6.374;2024-03-29T07:32:10;99188.28;;;9.38;78.19
83894;BME280;73920;51.902;6.374;2024-03-29T07:34:36;99183.81;;;9.38;78.50
83894;BME280;73920;51.902;6.374;2024-03-29T07:37:05;99161.09;;;9.22;78.97
83894;BME280;73920;51.902;6.374;2024-03-29T07:39:32;99192.94;;;9.47;78.99
83894;BME280;73920;51.902;6.374;2024-03-29T07:41:58;99209.81;;;9.48;78.36
83894;BME280;73920;51.902;6.374;2024-03-29T07:44:24;99213.88;;;9.40;78.11
83894;BME280;73920;51.902;6.374;2024-03-29T07:46:50;99206.72;;;9.41;78.47
83894;BME280;73920;51.902;6.374;2024-03-29T07:49:16;99198.63;;;9.43;78.62
83894;BME280;73920;51.902;6.374;2024-03-29T07:51:43;99207.97;;;9.48;77.81
83894;BME280;73920;51.902;6.374;2024-03-29T07:54:09;99215.53;;;9.54;77.35
83894;BME280;73920;51.902;6.374;2024-03-29T07:56:35;99203.75;;;9.57;77.57
83894;BME280;73920;51.902;6.374;2024-03-29T07:59:01;99209.09;;;9.57;76.99
83894;BME280;73920;51.902;6.374;2024-03-29T08:01:28;99201.19;;;9.55;77.31
83894;BME280;73920;51.902;6.374;2024-03-29T08:03:54;99214.66;;;9.54;77.70
83894;BME280;73920;51.902;6.374;2024-03-29T08:06:20;99213.72;;;9.55;77.72
83894;BME280;73920;51.902;6.374;2024-03-29T08:08:47;99223.37;;;9.56;77.81
83894;BME280;73920;51.902;6.374;2024-03-29T08:11:13;99216.37;;;9.55;77.88
83894;BME280;73920;51.902;6.374;2024-03-29T08:13:40;99203.50;;;9.60;77.83
83894;BME280;73920;51.902;6.374;2024-03-29T08:16:07;99196.62;;;9.68;77.19
83894;BME280;73920;51.902;6.374;2024-03-29T08:18:33;99192.87;;;9.82;77.15
83894;BME280;73920;51.902;6.374;2024-03-29T08:20:59;99187.56;;;10.04;76.60
83894;BME280;73920;51.902;6.374;2024-03-29T08:23:26;99193.31;;;10.22;75.06
83894;BME280;73920;51.902;6.374;2024-03-29T08:25:53;99187.84;;;10.34;74.92
83894;BME280;73920;51.902;6.374;2024-03-29T08:28:19;99180.53;;;10.48;74.20
83894;BME280;73920;51.902;6.374;2024-03-29T08:30:45;99170.81;;;10.47;73.74
83894;BME280;73920;51.902;6.374;2024-03-29T08:33:12;99182.12;;;10.39;72.95
83894;BME280;73920;51.902;6.374;2024-03-29T08:35:38;99182.25;;;10.38;73.50
83894;BME280;73920;51.902;6.374;2024-03-29T08:38:04;99198.75;;;10.43;73.82
83894;BME280;73920;51.902;6.374;2024-03-29T08:40:30;99197.28;;;10.38;72.90
83894;BME280;73920;51.902;6.374;2024-03-29T08:42:57;99187.72;;;10.36;73.51
83894;BME280;73920;51.902;6.374;2024-03-29T08:45:23;99175.69;;;10.42;73.49
83894;BME280;73920;51.902;6.374;2024-03-29T08:47:50;99196.31;;;10.51;73.97
83894;BME280;73920;51.902;6.374;2024-03-29T08:50:18;99198.00;;;10.63;73.87
83894;BME280;73920;51.902;6.374;2024-03-29T08:52:44;99203.81;;;10.68;72.63
83894;BME280;73920;51.902;6.374;2024-03-29T08:55:11;99221.91;;;10.75;72.93
83894;BME280;73920;51.902;6.374;2024-03-29T08:57:37;99214.47;;;10.90;72.86
83894;BME280;73920;51.902;6.374;2024-03-29T09:00:04;99217.38;;;10.98;72.44
83894;BME280;73920;51.902;6.374;2024-03-29T09:02:31;99203.22;;;11.07;72.09
83894;BME280;73920;51.902;6.374;2024-03-29T09:04:57;99200.75;;;11.15;71.90
83894;BME280;73920;51.902;6.374;2024-03-29T09:07:24;99205.84;;;11.18;72.54
83894;BME280;73920;51.902;6.374;2024-03-29T09:09:51;99214.00;;;11.28;72.56
83894;BME280;73920;51.902;6.374;2024-03-29T09:12:17;99210.91;;;11.32;71.44
83894;BME280;73920;51.902;6.374;2024-03-29T09:14:44;99229.78;;;11.31;72.29
83894;BME280;73920;51.902;6.374;2024-03-29T09:17:10;99243.50;;;11.38;71.94
83894;BME280;73920;51.902;6.374;2024-03-29T09:19:36;99239.59;;;11.42;71.97
83894;BME280;73920;51.902;6.374;2024-03-29T09:22:03;99244.94;;;11.42;71.68
83894;BME280;73920;51.902;6.374;2024-03-29T09:24:29;99227.91;;;11.43;72.00
83894;BME280;73920;51.902;6.374;2024-03-29T09:26:56;99211.38;;;11.38;72.11
83894;BME280;73920;51.902;6.374;2024-03-29T09:29:22;99224.44;;;11.52;71.65
83894;BME280;73920;51.902;6.374;2024-03-29T09:31:48;99220.53;;;11.56;70.97
83894;BME280;73920;51.902;6.374;2024-03-29T09:34:14;99236.63;;;11.76;71.26
83894;BME280;73920;51.902;6.374;2024-03-29T09:36:40;99225.53;;;12.02;70.55
83894;BME280;73920;51.902;6.374;2024-03-29T09:39:07;99229.44;;;12.18;69.96
83894;BME280;73920;51.902;6.374;2024-03-29T09:41:33;99230.72;;;12.24;69.32
83894;BME280;73920;51.902;6.374;2024-03-29T09:44:02;99244.84;;;12.26;69.40
83894;BME280;73920;51.902;6.374;2024-03-29T09:46:29;99249.09;;;12.28;69.58
83894;BME280;73920;51.902;6.374;2024-03-29T09:48:55;99239.06;;;12.30;69.15
83894;BME280;73920;51.902;6.374;2024-03-29T09:51:22;99235.81;;;12.27;68.49
83894;BME280;73920;51.902;6.374;2024-03-29T09:53:50;99243.16;;;12.25;69.26
83894;BME280;73920;51.902;6.374;2024-03-29T09:56:17;99245.87;;;12.34;69.34
83894;BME280;73920;51.902;6.374;2024-03-29T09:58:43;99249.78;;;12.61;69.60
83894;BME280;73920;51.902;6.374;2024-03-29T10:01:09;99254.41;;;12.99;68.29
83894;BME280;73920;51.902;6.374;2024-03-29T10:03:40;99265.28;;;13.66;67.84
83894;BME280;73920;51.902;6.374;2024-03-29T10:06:06;99260.22;;;14.28;66.08
83894;BME280;73920;51.902;6.374;2024-03-29T10:08:33;99261.72;;;14.60;64.55
83894;BME280;73920;51.902;6.374;2024-03-29T10:10:59;99254.06;;;14.65;63.58
83894;BME280;73920;51.902;6.374;2024-03-29T10:13:26;99260.22;;;14.75;63.31
83894;BME280;73920;51.902;6.374;2024-03-29T10:15:54;99274.84;;;15.00;63.15
83894;BME280;73920;51.902;6.374;2024-03-29T10:18:20;99276.53;;;15.01;61.71
83894;BME280;73920;51.902;6.374;2024-03-29T10:20:47;99278.38;;;15.00;62.17
83894;BME280;73920;51.902;6.374;2024-03-29T10:23:13;99280.22;;;15.00;61.36
83894;BME280;73920;51.902;6.374;2024-03-29T10:25:42;99285.44;;;15.01;61.54
83894;BME280;73920;51.902;6.374;2024-03-29T10:28:08;99282.41;;;15.14;62.55
83894;BME280;73920;51.902;6.374;2024-03-29T10:30:35;99278.03;;;15.31;61.20
83894;BME280;73920;51.902;6.374;2024-03-29T10:33:01;99281.62;;;15.49;61.00
83894;BME280;73920;51.902;6.374;2024-03-29T10:35:27;99266.06;;;15.43;60.68
83894;BME280;73920;51.902;6.374;2024-03-29T10:37:54;99268.34;;;15.38;61.20
83894;BME280;73920;51.902;6.374;2024-03-29T10:40:21;99257.28;;;15.41;60.58
83894;BME280;73920;51.902;6.374;2024-03-29T10:42:48;99251.72;;;15.42;60.77
83894;BME280;73920;51.902;6.374;2024-03-29T10:45:15;99266.91;;;15.43;59.94
83894;BME280;73920;51.902;6.374;2024-03-29T10:47:43;99249.56;;;15.46;59.78
83894;BME280;73920;51.902;6.374;2024-03-29T10:50:11;99268.87;;;15.41;59.61
83894;BME280;73920;51.902;6.374;2024-03-29T10:52:39;99266.19;;;15.23;60.15
83894;BME280;73920;51.902;6.374;2024-03-29T10:55:11;99275.88;;;15.79;59.83
83894;BME280;73920;51.902;6.374;2024-03-29T10:57:41;99268.44;;;16.16;57.73
83894;BME280;73920;51.902;6.374;2024-03-29T11:00:15;99267.53;;;16.34;57.76
83894;BME280;73920;51.902;6.374;2024-03-29T11:02:57;99268.87;;;16.89;56.58
83894;BME280;73920;51.902;6.374;2024-03-29T11:05:29;99264.41;;;17.72;54.21
83894;BME280;73920;51.902;6.374;2024-03-29T11:10:40;99273.66;;;18.42;53.68
83894;BME280;73920;51.902;6.374;2024-03-29T11:15:45;99275.69;;;19.11;50.37
83894;BME280;73920;51.902;6.374;2024-03-29T11:18:15;99298.88;;;18.43;51.89
83894;BME280;73920;51.902;6.374;2024-03-29T11:20:42;99304.28;;;17.78;51.87
83894;BME280;73920;51.902;6.374;2024-03-29T11:23:16;99293.28;;;17.13;53.91
83894;BME280;73920;51.902;6.374;2024-03-29T11:25:50;99303.28;;;17.21;53.31
83894;BME280;73920;51.902;6.374;2024-03-29T11:28:26;99327.44;;;16.89;53.76
83894;BME280;73920;51.902;6.374;2024-03-29T11:30:53;99302.94;;;16.39;54.82
83894;BME280;73920;51.902;6.374;2024-03-29T11:35:59;99284.91;;;16.13;56.90
83894;BME280;73920;51.902;6.374;2024-03-29T11:38:31;99273.56;;;16.28;56.73
83894;BME280;73920;51.902;6.374;2024-03-29T11:41:03;99272.50;;;16.20;55.60
83894;BME280;73920;51.902;6.374;2024-03-29T11:43:34;99280.84;;;16.09;55.47
83894;BME280;73920;51.902;6.374;2024-03-29T11:46:07;99294.78;;;16.05;55.87
83894;BME280;73920;51.902;6.374;2024-03-29T11:48:35;99295.25;;;16.00;55.60
83894;BME280;73920;51.902;6.374;2024-03-29T11:51:02;99313.59;;;15.97;55.43
83894;BME280;73920;51.902;6.374;2024-03-29T11:53:30;99306.47;;;16.13;56.06
83894;BME280;73920;51.902;6.374;2024-03-29T11:55:58;99319.41;;;16.10;55.75
83894;BME280;73920;51.902;6.374;2024-03-29T11:58:26;99318.34;;;16.03;55.34
83894;BME280;73920;51.902;6.374;2024-03-29T12:00:55;99327.94;;;15.80;55.72
83894;BME280;73920;51.902;6.374;2024-03-29T12:03:24;99316.59;;;15.58;56.33
83894;BME280;73920;51.902;6.374;2024-03-29T12:05:52;99312.75;;;15.61;57.07
83894;BME280;73920;51.902;6.374;2024-03-29T12:08:19;99314.75;;;15.94;56.33
83894;BME280;73920;51.902;6.374;2024-03-29T12:10:45;99317.78;;;16.35;55.25
83894;BME280;73920;51.902;6.374;2024-03-29T12:13:15;99320.41;;;16.70;54.42
83894;BME280;73920;51.902;6.374;2024-03-29T12:15:41;99322.00;;;17.14;53.95
83894;BME280;73920;51.902;6.374;2024-03-29T12:18:08;99332.38;;;17.01;52.98
83894;BME280;73920;51.902;6.374;2024-03-29T12:20:35;99323.63;;;17.07;52.23
83894;BME280;73920;51.902;6.374;2024-03-29T12:23:04;99324.88;;;17.21;52.69
83894;BME280;73920;51.902;6.374;2024-03-29T12:25:32;99333.94;;;17.12;52.23
83894;BME280;73920;51.902;6.374;2024-03-29T12:27:59;99346.81;;;16.84;52.37
83894;BME280;73920;51.902;6.374;2024-03-29T12:30:25;99338.91;;;16.65;52.85
83894;BME280;73920;51.902;6.374;2024-03-29T12:35:29;99359.69;;;16.47;53.26
83894;BME280;73920;51.902;6.374;2024-03-29T12:37:57;99352.91;;;16.43;54.95
83894;BME280;73920;51.902;6.374;2024-03-29T12:40:25;99339.47;;;16.51;53.32
83894;BME280;73920;51.902;6.374;2024-03-29T12:42:53;99344.44;;;16.38;52.83
83894;BME280;73920;51.902;6.374;2024-03-29T12:45:19;99339.38;;;16.35;54.17
83894;BME280;73920;51.902;6.374;2024-03-29T12:47:47;99333.97;;;16.35;53.62
83894;BME280;73920;51.902;6.374;2024-03-29T12:50:23;99311.38;;;16.36;52.89
83894;BME280;73920;51.902;6.374;2024-03-29T12:52:50;99333.00;;;16.44;52.87
83894;BME280;73920;51.902;6.374;2024-03-29T12:55:19;99333.88;;;16.44;52.11
83894;BME280;73920;51.902;6.374;2024-03-29T12:57:46;99340.72;;;16.39;52.70
83894;BME280;73920;51.902;6.374;2024-03-29T13:00:13;99337.66;;;16.34;52.27
83894;BME280;73920;51.902;6.374;2024-03-29T13:02:39;99334.91;;;16.25;51.65
83894;BME280;73920;51.902;6.374;2024-03-29T13:05:07;99322.72;;;16.21;51.89
83894;BME280;73920;51.902;6.374;2024-03-29T13:07:33;99330.50;;;16.24;51.54
83894;BME280;73920;51.902;6.374;2024-03-29T13:10:00;99327.19;;;16.31;51.66
83894;BME280;73920;51.902;6.374;2024-03-29T13:12:26;99287.75;;;16.12;51.44
83894;BME280;73920;51.902;6.374;2024-03-29T13:14:52;99326.34;;;16.30;50.80
83894;BME280;73920;51.902;6.374;2024-03-29T13:17:19;99326.50;;;16.29;51.22